Glens Falls, New York
Current Conditions -  °F | °C
As of 5:53 AM on Tuesday 21 Oct 2014 (Local Time) from KGFL Reporting Station
Overcast Overcast  
Wind Chill:   Ceiling: 7000
Heat Index:   Visibility: 10mi
Dew Point:   Wind: 0mph
Humidity: 90%   Direction: NA
Pressure: 29.91"   Gusts: NA
Location:  43.31°N, 73.64°W
Report Text: KGFL 210953Z AUTO 00000KT 10SM BKN070 OVC100 07/06 A2991 RMK AO2 SLP133 T00720056
Loading
Personal Weather Stations






























Interactive Weather Map
Tropical Storm Tracking
New forecast layout! Learn more

10-Day Weather Forecast

Advertisements
Track Severe Weather on mobile